Airfield :







YOU CAN JOIN US ON...

 
LOGIN :

Register | Disclaimer

   EN    FR    IT 

 









Legend :    VFR   Marginal VFR   IFR   Intensive IFR   Very Intensive IFR
Visi :
Ceiling :
>= 8 km
>= 3000ft
5 to 8 km
1000 to 3000 ft
1500m to 5 km
500 to 1000 ft
800 to 1500m
200 to 500 ft
< 800m
< 200 ft
Symbols :   Thunderstorms  Fog  Heavy snow  Heavy precipitations  Wind > 20 kt






- Airport Elevation : 199 ft
- IATA code : YRQ


CYRQ - Trois-Rivières

CURRENT METAR :
  • 280748Z AUTO 35003KT 6SM BR FEW022 00/00 A3008 RMK SLP190

EXPIRED METARs :
  • 280735Z AUTO 35005KT 5SM BR CLR M00/M00 A3008 RMK SLP190
  • 280700Z AUTO 03002KT 9SM CLR 02/01 A3007 RMK SLP187
  • 280600Z AUTO 04004KT 9SM CLR 02/02 A3007 RMK SLP187
  • 280500Z AUTO 02004KT 9SM CLR 03/02 A3007 RMK SLP185

TAF AMD TAF CYRQ
Valid from the 28 at 08:00 until the 28 at 20:00 UTC


280750Z 2808/2820 05010KT 3SM BR SKC
TEMPO 2808/2810 6SM BR
PROB40 2808/2810 3/4SM BR BKN003
FM281000 01006KT P6SM FEW003 SCT012
TEMPO 2810/2813 2SM BR BKN012
PROB40 2810/2813 3/4SM BR BKN003
FM281300 01010G20KT P6SM BKN015
TEMPO 2813/2815 SCT015
FM281500 05010G20KT P6SM BKN025
FM281700 05010G20KT P6SM SKC RMK FCST BASED ON AUTO OBS. NXT FCST BY 281400Z
CZUL FIR / North America



MET'MAP, your aeronautical weather chart ! - Copyright ORBIFLY December 2007 - Disclaimer

ORBIFLY MET'MAP TEAM :

Programming & Development : Alexandra Zaïnal
Concept & original design : Baudouin d'Aumeries
Assistance for programming : Marc-Olivier Méhu
Technical & hardware support : Manuel Goepfert

Contact : metmap@orbifly.com




SOURCES & CREDITS :

   NOAA